createdAt,value
2019-03-21T00:00:49.199Z,99.90
2019-03-21T00:03:18.392Z,99.90
2019-03-21T00:05:48.772Z,99.90
2019-03-21T00:08:18.467Z,99.90
2019-03-21T00:11:24.255Z,99.90
2019-03-21T00:14:06.388Z,99.90
2019-03-21T00:16:27.486Z,99.90
2019-03-21T00:18:58.226Z,99.90
2019-03-21T00:21:27.880Z,99.90
2019-03-21T00:23:57.944Z,99.90
2019-03-21T00:26:28.169Z,99.90
2019-03-21T00:28:58.520Z,99.90
2019-03-21T00:31:29.167Z,99.90
2019-03-21T00:33:59.271Z,99.90
2019-03-21T00:36:28.921Z,99.90
2019-03-21T00:38:58.937Z,99.90
2019-03-21T00:41:28.607Z,99.90
2019-03-21T00:43:58.317Z,99.90
2019-03-21T00:46:28.386Z,99.90
2019-03-21T00:48:58.464Z,99.90
2019-03-21T00:51:28.279Z,99.90
2019-03-21T00:53:58.039Z,99.90
2019-03-21T00:56:28.064Z,99.90
2019-03-21T00:58:58.180Z,99.90
2019-03-21T01:01:28.716Z,99.90
2019-03-21T01:03:58.391Z,99.90
2019-03-21T01:06:28.376Z,99.90
2019-03-21T01:08:58.406Z,99.90
2019-03-21T01:11:28.060Z,99.90
2019-03-21T01:13:57.751Z,99.90
2019-03-21T01:16:27.440Z,99.90
2019-03-21T01:18:57.617Z,99.90
2019-03-21T01:21:27.985Z,99.90
2019-03-21T01:23:57.924Z,99.90
2019-03-21T01:26:27.964Z,99.90
2019-03-21T01:28:58.151Z,99.90
2019-03-21T01:31:27.806Z,99.90
2019-03-21T01:33:57.563Z,99.90
2019-03-21T01:36:27.281Z,99.90
2019-03-21T01:38:57.035Z,99.90
2019-03-21T01:41:26.706Z,99.90
2019-03-21T01:43:56.459Z,99.90
2019-03-21T01:46:26.254Z,99.90
2019-03-21T01:48:56.367Z,99.90
2019-03-21T01:51:26.036Z,99.90
2019-03-21T01:53:56.399Z,99.90
2019-03-21T01:56:26.990Z,99.90
2019-03-21T01:58:57.441Z,99.90
2019-03-21T02:01:27.088Z,99.90
2019-03-21T02:03:56.786Z,99.90
2019-03-21T02:06:26.464Z,99.90
2019-03-21T02:08:57.024Z,99.90
2019-03-21T02:11:27.113Z,99.90
2019-03-21T02:13:57.216Z,99.90
2019-03-21T02:16:27.299Z,99.90
2019-03-21T02:18:57.043Z,99.90
2019-03-21T02:21:26.774Z,99.90
2019-03-21T02:23:56.751Z,99.90
2019-03-21T02:26:27.059Z,99.90
2019-03-21T02:28:56.719Z,99.90
2019-03-21T02:31:26.739Z,99.90
2019-03-21T02:33:56.483Z,99.90
2019-03-21T02:36:26.265Z,99.90
2019-03-21T02:38:55.999Z,99.90
2019-03-21T02:41:26.927Z,99.90
2019-03-21T02:43:56.590Z,99.90
2019-03-21T02:46:26.360Z,99.90
2019-03-21T02:48:56.158Z,99.90
2019-03-21T02:51:25.911Z,99.90
2019-03-21T02:53:56.416Z,99.90
2019-03-21T02:56:26.358Z,99.90
2019-03-21T02:58:56.495Z,99.90
2019-03-21T03:01:27.063Z,99.90
2019-03-21T03:03:57.205Z,99.90
2019-03-21T03:06:27.335Z,99.90
2019-03-21T03:08:57.442Z,99.90
2019-03-21T03:11:27.452Z,99.90
2019-03-21T03:13:57.870Z,99.90
2019-03-21T03:16:27.683Z,99.90
2019-03-21T03:18:57.797Z,99.90
2019-03-21T03:21:27.490Z,99.90
2019-03-21T03:23:57.231Z,99.90
2019-03-21T03:26:27.596Z,99.90
2019-03-21T03:28:57.736Z,99.90
2019-03-21T03:31:27.901Z,99.90
2019-03-21T03:33:58.458Z,99.90
2019-03-21T03:36:28.226Z,99.90
2019-03-21T03:38:57.896Z,99.90
2019-03-21T03:41:27.991Z,99.90
2019-03-21T03:43:58.108Z,99.90
2019-03-21T03:46:28.168Z,99.90
2019-03-21T03:48:57.823Z,99.90
2019-03-21T03:51:27.518Z,99.90
2019-03-21T03:53:58.291Z,99.90
2019-03-21T03:56:28.419Z,99.90
2019-03-21T03:58:59.036Z,99.90
2019-03-21T04:01:28.903Z,99.90
2019-03-21T04:03:58.935Z,99.90
2019-03-21T04:06:28.691Z,99.90
2019-03-21T04:08:58.356Z,99.90
2019-03-21T04:11:28.415Z,99.90
2019-03-21T04:13:58.094Z,99.90
2019-03-21T04:16:27.787Z,99.90
2019-03-21T04:18:57.757Z,99.90
2019-03-21T04:21:27.463Z,99.90
2019-03-21T04:23:59.716Z,99.90
2019-03-21T04:26:30.383Z,99.90
2019-03-21T04:29:01.083Z,99.90
2019-03-21T04:31:31.128Z,99.90
2019-03-21T04:34:02.557Z,99.90
2019-03-21T04:36:32.264Z,99.90
2019-03-21T04:39:04.770Z,99.90
2019-03-21T04:41:34.915Z,99.90
2019-03-21T04:44:05.005Z,99.90
2019-03-21T04:46:34.701Z,99.90
2019-03-21T04:49:04.399Z,99.90
2019-03-21T04:51:34.522Z,99.90
2019-03-21T04:54:04.672Z,99.90
2019-03-21T04:56:34.792Z,99.90
2019-03-21T04:59:04.451Z,99.90
2019-03-21T05:01:34.251Z,99.90
2019-03-21T05:04:05.355Z,99.90
2019-03-21T05:06:35.476Z,99.90
2019-03-21T05:09:08.663Z,99.90
2019-03-21T05:11:39.098Z,99.90
2019-03-21T05:14:09.632Z,99.90
2019-03-21T05:16:39.680Z,99.90
2019-03-21T05:19:09.692Z,99.90
2019-03-21T05:21:39.837Z,99.90
2019-03-21T05:24:09.810Z,99.90
2019-03-21T05:26:39.496Z,99.90
2019-03-21T05:29:09.536Z,99.90
2019-03-21T05:31:39.636Z,99.90
2019-03-21T05:34:09.286Z,99.90
2019-03-21T05:36:38.977Z,99.90
2019-03-21T05:39:10.243Z,99.90
2019-03-21T05:41:40.738Z,99.90
2019-03-21T05:44:24.485Z,99.90
2019-03-21T05:46:54.505Z,99.90
2019-03-21T05:49:24.171Z,99.90
2019-03-21T05:51:54.578Z,99.90
2019-03-21T05:54:24.524Z,99.90
2019-03-21T05:56:54.479Z,99.90
2019-03-21T05:59:24.873Z,99.90
2019-03-21T06:01:55.425Z,99.90
2019-03-21T06:04:25.835Z,99.90
2019-03-21T06:07:16.456Z,99.90
2019-03-21T06:09:47.004Z,99.90
2019-03-21T06:12:17.024Z,99.90
2019-03-21T06:14:56.549Z,99.90
2019-03-21T06:17:27.243Z,99.90
2019-03-21T06:20:04.091Z,99.90
2019-03-21T06:23:01.275Z,99.90
2019-03-21T06:25:57.780Z,99.90
2019-03-21T06:28:27.888Z,99.90
2019-03-21T06:30:58.237Z,99.90
2019-03-21T06:33:27.915Z,99.90
2019-03-21T06:35:57.901Z,99.90
2019-03-21T06:38:27.939Z,99.90
2019-03-21T06:40:57.582Z,99.90
2019-03-21T06:43:27.260Z,99.90
2019-03-21T06:45:57.562Z,99.90
2019-03-21T06:48:27.995Z,99.90
2019-03-21T06:50:57.739Z,99.90
2019-03-21T06:53:27.435Z,99.90
2019-03-21T06:55:57.503Z,99.90
2019-03-21T06:58:27.479Z,99.90
2019-03-21T07:00:57.205Z,99.90
2019-03-21T07:03:26.935Z,99.90
2019-03-21T07:05:56.679Z,99.90
2019-03-21T07:08:26.811Z,99.90
2019-03-21T07:10:58.354Z,99.90
2019-03-21T07:13:28.227Z,99.90
2019-03-21T07:15:57.907Z,99.90
2019-03-21T07:18:27.544Z,99.90
2019-03-21T07:20:57.583Z,99.90
2019-03-21T07:23:27.235Z,99.90
2019-03-21T07:25:57.291Z,99.90
2019-03-21T07:28:27.655Z,99.90
2019-03-21T07:30:57.711Z,99.90
2019-03-21T07:33:27.453Z,99.90
2019-03-21T07:35:57.628Z,99.80
2019-03-21T07:38:27.356Z,99.00
2019-03-21T07:40:57.404Z,97.20
2019-03-21T07:43:27.379Z,98.90
2019-03-21T07:45:57.129Z,96.70
2019-03-21T07:48:27.152Z,91.40
2019-03-21T07:50:57.184Z,93.80
2019-03-21T07:53:27.174Z,92.00
2019-03-21T07:55:57.328Z,93.90
2019-03-21T07:58:27.631Z,92.60
2019-03-21T08:00:58.363Z,91.60
2019-03-21T08:03:28.655Z,91.50
2019-03-21T08:05:59.030Z,90.00
2019-03-21T08:08:29.043Z,90.10
2019-03-21T08:10:58.800Z,82.20
2019-03-21T08:13:28.455Z,80.40
2019-03-21T08:15:58.483Z,80.80
2019-03-21T08:18:28.586Z,80.80
2019-03-21T08:20:59.867Z,82.70
2019-03-21T08:23:30.364Z,78.10
2019-03-21T08:26:00.699Z,73.80
2019-03-21T08:28:30.478Z,72.90
2019-03-21T08:31:31.044Z,69.70
2019-03-21T08:34:01.055Z,69.50
2019-03-21T08:36:30.738Z,68.40
2019-03-21T08:39:00.686Z,67.80
2019-03-21T08:41:30.711Z,67.10
2019-03-21T08:44:00.552Z,66.50
2019-03-21T08:46:31.135Z,64.50
2019-03-21T08:49:01.745Z,64.40
2019-03-21T08:51:31.427Z,65.20
2019-03-21T08:54:01.731Z,62.20
2019-03-21T08:56:31.743Z,63.60
2019-03-21T08:59:01.812Z,62.80
2019-03-21T09:01:31.507Z,62.70
2019-03-21T09:04:01.495Z,62.40
2019-03-21T09:06:31.180Z,59.80
2019-03-21T09:09:01.113Z,58.70
2019-03-21T09:11:31.447Z,59.30
2019-03-21T09:14:01.186Z,59.70
2019-03-21T09:16:31.575Z,58.10
2019-03-21T09:19:01.263Z,57.70
2019-03-21T09:21:31.308Z,58.00
2019-03-21T09:24:01.323Z,57.70
2019-03-21T09:26:31.614Z,57.80
2019-03-21T09:29:01.976Z,56.60
2019-03-21T09:31:31.622Z,55.90
2019-03-21T09:34:01.306Z,56.40
2019-03-21T09:36:31.700Z,55.60
2019-03-21T09:39:01.748Z,56.10
2019-03-21T09:41:31.467Z,57.30
2019-03-21T09:44:01.486Z,56.40
2019-03-21T09:46:31.190Z,56.60
2019-03-21T09:49:01.515Z,55.80
2019-03-21T09:51:32.154Z,56.70
2019-03-21T09:54:09.782Z,55.50
2019-03-21T09:56:34.191Z,56.20
2019-03-21T09:59:03.878Z,55.30
2019-03-21T10:01:33.904Z,54.80
2019-03-21T10:04:04.495Z,53.90
2019-03-21T10:06:34.455Z,54.60
2019-03-21T10:09:06.600Z,54.40
2019-03-21T10:11:36.664Z,54.10
2019-03-21T10:14:06.903Z,54.10
2019-03-21T10:16:36.930Z,53.50
2019-03-21T10:19:07.127Z,53.70
2019-03-21T10:21:43.335Z,53.90
2019-03-21T10:24:08.550Z,52.80
2019-03-21T10:26:38.194Z,52.30
2019-03-21T10:29:07.879Z,52.70
2019-03-21T10:31:38.171Z,52.10
2019-03-21T10:34:08.215Z,51.60
2019-03-21T10:36:38.191Z,52.20
2019-03-21T10:39:08.306Z,51.50
2019-03-21T10:41:38.035Z,50.50
2019-03-21T10:44:07.720Z,48.90
2019-03-21T10:46:37.745Z,46.90
2019-03-21T10:49:07.867Z,48.20
2019-03-21T10:51:37.908Z,48.60
2019-03-21T10:54:07.589Z,48.60
2019-03-21T10:56:37.916Z,49.10
2019-03-21T10:59:08.270Z,49.20
2019-03-21T11:01:37.923Z,48.70
2019-03-21T11:04:07.638Z,47.80
2019-03-21T11:06:37.611Z,48.20
2019-03-21T11:09:09.401Z,48.20
2019-03-21T11:11:39.134Z,48.90
2019-03-21T11:14:08.870Z,48.90
2019-03-21T11:16:39.331Z,48.90
2019-03-21T11:19:09.855Z,46.90
2019-03-21T11:21:39.879Z,47.70
2019-03-21T11:24:09.568Z,46.40
2019-03-21T11:26:39.679Z,43.90
2019-03-21T11:29:09.439Z,45.00
2019-03-21T11:31:39.103Z,43.90
2019-03-21T11:34:08.792Z,43.90
2019-03-21T11:36:39.185Z,43.60
2019-03-21T11:39:09.500Z,41.10
2019-03-21T11:41:39.563Z,41.30
2019-03-21T11:44:09.736Z,42.90
2019-03-21T11:46:39.755Z,42.60
2019-03-21T11:49:09.524Z,43.70
2019-03-21T11:51:39.300Z,43.10
2019-03-21T11:54:09.819Z,41.80
2019-03-21T11:56:39.543Z,43.10
2019-03-21T11:59:09.638Z,43.80
2019-03-21T12:01:39.383Z,43.10
2019-03-21T12:04:10.035Z,42.70
2019-03-21T12:06:40.009Z,42.30
2019-03-21T12:09:10.121Z,42.00
2019-03-21T12:11:39.891Z,41.40
2019-03-21T12:14:10.003Z,41.20
2019-03-21T12:16:39.727Z,42.20
2019-03-21T12:19:10.014Z,42.10
2019-03-21T12:21:40.415Z,42.50
2019-03-21T12:24:10.503Z,42.00
2019-03-21T12:26:40.587Z,42.30
2019-03-21T12:29:11.045Z,40.70
2019-03-21T12:31:40.759Z,41.00
2019-03-21T12:34:10.495Z,41.40
2019-03-21T12:36:40.831Z,40.10
2019-03-21T12:39:10.695Z,40.80
2019-03-21T12:41:40.386Z,40.60
2019-03-21T12:44:10.062Z,42.10
2019-03-21T12:46:40.102Z,40.30
2019-03-21T12:49:09.763Z,40.90
2019-03-21T12:51:39.932Z,40.00
2019-03-21T12:54:09.593Z,40.20
2019-03-21T12:56:40.065Z,39.70
2019-03-21T12:59:10.190Z,39.90
2019-03-21T13:01:40.387Z,41.40
2019-03-21T13:04:10.026Z,41.00
2019-03-21T13:06:40.667Z,40.30
2019-03-21T13:09:11.042Z,40.90
2019-03-21T13:11:41.516Z,41.80
2019-03-21T13:14:11.528Z,40.80
2019-03-21T13:16:41.544Z,41.00
2019-03-21T13:19:11.628Z,41.10
2019-03-21T13:21:42.001Z,40.50
2019-03-21T13:24:11.728Z,40.30
2019-03-21T13:26:42.207Z,38.90
2019-03-21T13:29:12.205Z,40.50
2019-03-21T13:31:43.295Z,39.60
2019-03-21T13:34:13.013Z,40.30
2019-03-21T13:36:43.067Z,39.30
2019-03-21T13:39:13.003Z,38.10
2019-03-21T13:41:43.243Z,38.30
2019-03-21T13:44:12.963Z,37.70
2019-03-21T13:46:42.658Z,38.60
2019-03-21T13:49:13.078Z,38.50
2019-03-21T13:51:43.110Z,38.80
2019-03-21T13:54:13.049Z,39.10
2019-03-21T13:56:42.735Z,39.00
2019-03-21T13:59:13.048Z,38.30
2019-03-21T14:01:43.100Z,38.40
2019-03-21T14:04:13.141Z,42.20
2019-03-21T14:06:42.834Z,38.90
2019-03-21T14:09:12.491Z,38.90
2019-03-21T14:11:42.564Z,38.60
2019-03-21T14:14:12.851Z,38.40
2019-03-21T14:16:42.643Z,38.60
2019-03-21T14:19:12.683Z,38.70
2019-03-21T14:21:42.581Z,38.70
2019-03-21T14:24:12.231Z,39.10
2019-03-21T14:26:43.167Z,39.00
2019-03-21T14:29:13.187Z,39.60
2019-03-21T14:31:43.516Z,39.30
2019-03-21T14:34:13.691Z,39.40
2019-03-21T14:36:44.080Z,39.40
2019-03-21T14:39:13.743Z,38.90
2019-03-21T14:41:43.879Z,39.10
2019-03-21T14:44:16.997Z,39.40
2019-03-21T14:46:46.687Z,38.30
2019-03-21T14:49:16.344Z,38.20
2019-03-21T14:51:46.475Z,38.30
2019-03-21T14:54:16.563Z,38.10
2019-03-21T14:56:46.249Z,37.80
2019-03-21T14:59:16.647Z,38.40
2019-03-21T15:01:46.696Z,39.20
2019-03-21T15:04:16.703Z,40.80
2019-03-21T15:06:46.653Z,40.60
2019-03-21T15:09:16.324Z,37.60
2019-03-21T15:11:46.158Z,36.80
2019-03-21T15:14:16.269Z,37.60
2019-03-21T15:16:46.393Z,37.30
2019-03-21T15:19:16.099Z,36.20
2019-03-21T15:21:45.827Z,36.50
2019-03-21T15:24:15.522Z,36.60
2019-03-21T15:26:45.182Z,36.60
2019-03-21T15:29:15.223Z,38.20
2019-03-21T15:31:45.151Z,36.30
2019-03-21T15:34:15.323Z,36.10
2019-03-21T15:36:46.155Z,35.80
2019-03-21T15:39:16.643Z,35.40
2019-03-21T15:41:46.712Z,35.70
2019-03-21T15:44:16.427Z,35.90
2019-03-21T15:46:46.159Z,35.90
2019-03-21T15:49:16.258Z,35.20
2019-03-21T15:51:46.397Z,35.90
2019-03-21T15:54:16.468Z,35.40
2019-03-21T15:56:46.594Z,35.50
2019-03-21T15:59:16.748Z,35.70
2019-03-21T16:01:46.843Z,34.90
2019-03-21T16:04:16.886Z,35.40
2019-03-21T16:06:47.019Z,35.30
2019-03-21T16:09:17.177Z,35.30
2019-03-21T16:11:47.149Z,35.50
2019-03-21T16:14:16.851Z,34.80
2019-03-21T16:16:46.830Z,35.30
2019-03-21T16:19:16.997Z,34.90
2019-03-21T16:21:46.731Z,35.30
2019-03-21T16:24:17.892Z,35.40
2019-03-21T16:26:48.271Z,35.30
2019-03-21T16:29:18.339Z,35.70
2019-03-21T16:31:48.013Z,35.80
2019-03-21T16:34:18.920Z,36.30
2019-03-21T16:36:48.576Z,36.30
2019-03-21T16:39:18.307Z,36.80
2019-03-21T16:41:48.293Z,35.90
2019-03-21T16:44:18.787Z,36.10
2019-03-21T16:46:48.848Z,36.60
2019-03-21T16:49:18.587Z,36.70
2019-03-21T16:51:48.682Z,39.70
2019-03-21T16:54:18.428Z,39.20
2019-03-21T16:56:48.457Z,36.60
2019-03-21T16:59:18.663Z,36.30
2019-03-21T17:01:48.311Z,36.10
2019-03-21T17:04:18.144Z,36.80
2019-03-21T17:06:48.199Z,37.10
2019-03-21T17:09:18.021Z,37.30
2019-03-21T17:11:48.456Z,37.60
2019-03-21T17:14:18.286Z,37.90
2019-03-21T17:16:47.983Z,37.80
2019-03-21T17:19:17.811Z,38.30
2019-03-21T17:21:48.070Z,38.80
2019-03-21T17:24:28.716Z,39.00
2019-03-21T17:26:50.272Z,39.50
2019-03-21T17:29:21.305Z,39.60
2019-03-21T17:31:50.975Z,39.70
2019-03-21T17:34:20.675Z,40.00
2019-03-21T17:36:50.671Z,40.60
2019-03-21T17:39:21.315Z,40.70
2019-03-21T17:41:50.975Z,41.00
2019-03-21T17:44:21.427Z,41.70
2019-03-21T17:46:51.079Z,42.20
2019-03-21T17:49:21.155Z,42.20
2019-03-21T17:51:51.507Z,42.60
2019-03-21T17:54:21.523Z,43.10
2019-03-21T17:56:51.536Z,43.20
2019-03-21T17:59:21.563Z,43.50
2019-03-21T18:01:51.787Z,43.80
2019-03-21T18:04:21.799Z,44.00
2019-03-21T18:06:51.494Z,44.20
2019-03-21T18:09:21.148Z,44.00
2019-03-21T18:11:50.883Z,44.30
2019-03-21T18:14:20.528Z,44.40
2019-03-21T18:16:50.224Z,44.00
2019-03-21T18:19:20.232Z,44.30
2019-03-21T18:21:49.970Z,44.40
2019-03-21T18:24:20.133Z,44.50
2019-03-21T18:26:49.906Z,44.50
2019-03-21T18:29:19.566Z,44.80
2019-03-21T18:31:49.654Z,45.60
2019-03-21T18:34:20.044Z,45.20
2019-03-21T18:36:50.095Z,45.40
2019-03-21T18:39:19.747Z,45.70
2019-03-21T18:41:50.074Z,45.70
2019-03-21T18:44:19.789Z,45.90
2019-03-21T18:46:49.461Z,46.20
2019-03-21T18:49:19.245Z,46.60
2019-03-21T18:51:49.415Z,47.30
2019-03-21T18:54:19.097Z,47.60
2019-03-21T18:56:48.953Z,47.90
2019-03-21T18:59:18.652Z,49.30
2019-03-21T19:01:57.987Z,49.50
2019-03-21T19:04:20.655Z,49.60
2019-03-21T19:06:51.183Z,49.80
2019-03-21T19:09:21.664Z,50.10
2019-03-21T19:11:51.318Z,50.30
2019-03-21T19:14:21.691Z,50.60
2019-03-21T19:16:52.128Z,50.90
2019-03-21T19:19:22.211Z,51.30
2019-03-21T19:21:52.258Z,51.30
2019-03-21T19:24:22.041Z,51.90
2019-03-21T19:26:51.711Z,53.20
2019-03-21T19:29:21.566Z,53.10
2019-03-21T19:31:51.874Z,53.10
2019-03-21T19:34:21.600Z,53.10
2019-03-21T19:36:51.345Z,53.10
2019-03-21T19:39:21.505Z,53.40
2019-03-21T19:41:53.413Z,53.60
2019-03-21T19:44:23.807Z,53.90
2019-03-21T19:46:54.691Z,54.20
2019-03-21T19:49:25.350Z,54.80
2019-03-21T19:51:55.967Z,54.80
2019-03-21T19:54:25.996Z,55.00
2019-03-21T19:56:55.708Z,55.00
2019-03-21T19:59:26.106Z,55.20
2019-03-21T20:01:56.128Z,55.50
2019-03-21T20:04:25.975Z,55.90
2019-03-21T20:06:56.090Z,56.30
2019-03-21T20:09:26.186Z,56.40
2019-03-21T20:11:56.991Z,57.50
2019-03-21T20:14:27.107Z,57.00
2019-03-21T20:16:56.866Z,57.30
2019-03-21T20:19:26.563Z,57.50
2019-03-21T20:21:56.647Z,58.00
2019-03-21T20:24:26.895Z,58.20
2019-03-21T20:26:56.932Z,58.60
2019-03-21T20:29:26.971Z,59.00
2019-03-21T20:31:57.444Z,59.50
2019-03-21T20:34:27.139Z,60.20
2019-03-21T20:36:59.824Z,60.80
2019-03-21T20:39:29.884Z,61.00
2019-03-21T20:41:59.615Z,61.80
2019-03-21T20:44:29.319Z,62.20
2019-03-21T20:46:58.995Z,63.00
2019-03-21T20:49:29.045Z,63.70
2019-03-21T20:51:59.315Z,64.80
2019-03-21T20:54:29.312Z,65.50
2019-03-21T20:56:59.734Z,66.70
2019-03-21T20:59:30.240Z,67.70
2019-03-21T21:02:02.986Z,69.00
2019-03-21T21:04:32.521Z,69.70
2019-03-21T21:07:02.278Z,70.80
2019-03-21T21:09:32.361Z,71.80
2019-03-21T21:12:02.495Z,73.40
2019-03-21T21:14:32.495Z,75.20
2019-03-21T21:17:02.204Z,76.60
2019-03-21T21:19:31.939Z,77.70
2019-03-21T21:22:01.668Z,80.50
2019-03-21T21:24:31.314Z,83.50
2019-03-21T21:27:01.374Z,89.00
2019-03-21T21:29:31.375Z,90.40
2019-03-21T21:32:01.489Z,91.50
2019-03-21T21:34:31.263Z,92.20
2019-03-21T21:37:00.930Z,93.10
2019-03-21T21:39:30.587Z,94.00
2019-03-21T21:42:00.851Z,94.40
2019-03-21T21:44:30.860Z,95.40
2019-03-21T21:47:00.566Z,96.40
2019-03-21T21:49:30.253Z,97.10
2019-03-21T21:52:00.258Z,97.80
2019-03-21T21:54:30.782Z,98.50
2019-03-21T21:57:00.723Z,99.00
2019-03-21T21:59:30.779Z,99.80
2019-03-21T22:02:00.483Z,99.90
2019-03-21T22:04:30.512Z,99.90
2019-03-21T22:07:00.558Z,99.90
2019-03-21T22:09:30.348Z,99.90
2019-03-21T22:12:00.490Z,99.90
2019-03-21T22:14:30.520Z,99.90
2019-03-21T22:17:00.499Z,99.90
2019-03-21T22:19:30.774Z,99.90
2019-03-21T22:22:00.569Z,99.90
2019-03-21T22:24:30.223Z,99.90
2019-03-21T22:26:59.918Z,99.90
2019-03-21T22:29:30.071Z,99.90
2019-03-21T22:32:00.719Z,99.90
2019-03-21T22:34:30.398Z,99.90
2019-03-21T22:37:00.043Z,99.90
2019-03-21T22:39:30.361Z,99.90
2019-03-21T22:42:00.418Z,99.90
2019-03-21T22:44:30.107Z,99.90
2019-03-21T22:47:00.169Z,99.90
2019-03-21T22:49:30.708Z,99.90
2019-03-21T22:52:00.739Z,99.90
2019-03-21T22:54:30.447Z,99.90
2019-03-21T22:57:00.088Z,99.90
2019-03-21T22:59:29.771Z,99.90
2019-03-21T23:01:59.843Z,99.90
2019-03-21T23:04:30.644Z,99.90
2019-03-21T23:07:00.356Z,99.90
2019-03-21T23:09:30.358Z,99.90
2019-03-21T23:12:00.768Z,99.90
2019-03-21T23:14:33.943Z,99.90
2019-03-21T23:17:03.582Z,99.90
2019-03-21T23:19:34.130Z,99.90
2019-03-21T23:22:04.151Z,99.90
2019-03-21T23:24:34.168Z,99.90
2019-03-21T23:27:05.556Z,99.90
2019-03-21T23:29:36.055Z,99.90
2019-03-21T23:32:05.979Z,99.90
2019-03-21T23:34:35.659Z,99.90
2019-03-21T23:37:05.901Z,99.90
2019-03-21T23:39:36.055Z,99.90
2019-03-21T23:42:06.043Z,99.90
2019-03-21T23:44:36.079Z,99.90
2019-03-21T23:47:05.747Z,99.90
2019-03-21T23:49:36.167Z,99.90
2019-03-21T23:52:05.815Z,99.90
2019-03-21T23:54:35.856Z,99.90
2019-03-21T23:57:05.938Z,99.90
2019-03-21T23:59:35.619Z,99.90
